createdAt,value
2024-01-20T00:02:01.930Z,77.93
2024-01-20T00:04:31.050Z,77.96
2024-01-20T00:07:00.325Z,78.19
2024-01-20T00:09:34.762Z,78.14
2024-01-20T00:12:11.050Z,77.96
2024-01-20T00:14:40.177Z,77.74
2024-01-20T00:17:13.638Z,77.16
2024-01-20T00:19:54.161Z,77.00
2024-01-20T00:22:24.161Z,76.76
2024-01-20T00:24:53.868Z,76.70
2024-01-20T00:27:23.170Z,76.63
2024-01-20T00:29:52.305Z,76.44
2024-01-20T00:32:21.322Z,76.56
2024-01-20T00:34:59.837Z,76.38
2024-01-20T00:37:36.794Z,76.79
2024-01-20T00:40:06.598Z,76.63
2024-01-20T00:42:37.902Z,77.09
2024-01-20T00:45:07.647Z,76.64
2024-01-20T00:47:39.627Z,76.67
2024-01-20T00:50:10.084Z,76.76
2024-01-20T00:52:39.244Z,76.58
2024-01-20T00:55:08.777Z,76.68
2024-01-20T00:57:37.613Z,76.35
2024-01-20T01:00:12.994Z,76.49
2024-01-20T01:02:42.944Z,76.16
2024-01-20T01:05:12.103Z,76.52
2024-01-20T01:07:40.840Z,76.38
2024-01-20T01:10:09.834Z,75.84
2024-01-20T01:12:38.858Z,75.64
2024-01-20T01:15:08.025Z,75.48
2024-01-20T01:17:36.752Z,75.95
2024-01-20T01:20:06.570Z,76.00
2024-01-20T01:22:35.615Z,76.07
2024-01-20T01:25:04.718Z,76.49
2024-01-20T01:27:33.348Z,76.14
2024-01-20T01:30:05.002Z,75.94
2024-01-20T01:32:34.069Z,76.59
2024-01-20T01:35:02.978Z,76.35
2024-01-20T01:37:31.407Z,76.32
2024-01-20T01:39:59.941Z,76.54
2024-01-20T01:42:28.552Z,76.32
2024-01-20T01:44:57.457Z,75.93
2024-01-20T01:47:29.295Z,76.03
2024-01-20T01:49:58.597Z,76.02
2024-01-20T01:52:28.896Z,75.97
2024-01-20T01:54:59.139Z,76.10
2024-01-20T01:57:30.358Z,75.59
2024-01-20T02:00:00.341Z,75.69
2024-01-20T02:02:29.422Z,75.64
2024-01-20T02:04:58.114Z,75.09
2024-01-20T02:07:27.416Z,75.46
2024-01-20T02:09:55.970Z,75.20
2024-01-20T02:12:25.780Z,75.59
2024-01-20T02:14:57.239Z,75.44
2024-01-20T02:17:25.783Z,75.50
2024-01-20T02:19:54.513Z,75.72
2024-01-20T02:22:28.300Z,75.50
2024-01-20T02:24:56.728Z,75.94
2024-01-20T02:27:25.401Z,75.82
2024-01-20T02:29:54.038Z,75.33
2024-01-20T02:32:22.789Z,75.36
2024-01-20T02:34:52.013Z,75.92
2024-01-20T02:37:21.158Z,75.70
2024-01-20T02:39:50.945Z,76.07
2024-01-20T02:42:19.480Z,75.56
2024-01-20T02:44:48.362Z,75.80
2024-01-20T02:47:16.846Z,75.62
2024-01-20T02:49:45.880Z,75.74
2024-01-20T02:52:14.520Z,75.70
2024-01-20T02:54:43.316Z,75.88
2024-01-20T02:57:14.654Z,75.83
2024-01-20T02:59:43.791Z,75.75
2024-01-20T03:02:12.598Z,75.38
2024-01-20T03:04:41.174Z,75.42
2024-01-20T03:07:09.977Z,75.53
2024-01-20T03:09:38.889Z,75.75
2024-01-20T03:12:08.219Z,75.44
2024-01-20T03:14:37.323Z,75.69
2024-01-20T03:17:09.197Z,75.76
2024-01-20T03:19:38.134Z,75.76
2024-01-20T03:22:07.099Z,75.53
2024-01-20T03:24:35.927Z,75.71
2024-01-20T03:27:04.637Z,75.77
2024-01-20T03:29:33.755Z,75.42
2024-01-20T03:32:02.582Z,75.70
2024-01-20T03:34:31.301Z,75.37
2024-01-20T03:37:00.258Z,75.33
2024-01-20T03:39:29.305Z,75.46
2024-01-20T03:41:57.867Z,75.79
2024-01-20T03:44:27.177Z,75.19
2024-01-20T03:46:55.838Z,75.06
2024-01-20T03:49:24.697Z,75.39
2024-01-20T03:51:53.816Z,75.53
2024-01-20T03:54:22.595Z,75.06
2024-01-20T03:56:51.376Z,75.10
2024-01-20T03:59:20.328Z,75.40
2024-01-20T04:01:49.093Z,75.15
2024-01-20T04:04:18.114Z,75.56
2024-01-20T04:06:46.680Z,75.14
2024-01-20T04:09:15.808Z,75.40
2024-01-20T04:11:44.494Z,75.63
2024-01-20T04:14:14.467Z,75.28
2024-01-20T04:16:43.180Z,75.45
2024-01-20T04:19:12.128Z,75.06
2024-01-20T04:21:43.303Z,75.31
2024-01-20T04:24:11.922Z,75.42
2024-01-20T04:26:40.917Z,75.91
2024-01-20T04:29:09.755Z,76.01
2024-01-20T04:31:38.416Z,76.06
2024-01-20T04:34:07.173Z,76.29
2024-01-20T04:36:35.907Z,75.94
2024-01-20T04:39:04.772Z,75.67
2024-01-20T04:41:33.342Z,75.65
2024-01-20T04:44:02.222Z,75.66
2024-01-20T04:46:33.654Z,75.37
2024-01-20T04:49:02.420Z,75.31
2024-01-20T04:51:31.353Z,75.35
2024-01-20T04:54:00.050Z,75.42
2024-01-20T04:56:28.895Z,75.55
2024-01-20T04:58:58.392Z,75.59
2024-01-20T05:01:27.169Z,75.30
2024-01-20T05:03:56.245Z,75.55
2024-01-20T05:06:25.050Z,75.20
2024-01-20T05:08:53.932Z,75.42
2024-01-20T05:11:22.654Z,75.78
2024-01-20T05:13:51.434Z,75.94
2024-01-20T05:16:20.896Z,76.00
2024-01-20T05:18:50.795Z,76.44
2024-01-20T05:21:19.814Z,76.90
2024-01-20T05:23:48.411Z,76.46
2024-01-20T05:26:17.341Z,76.02
2024-01-20T05:28:46.172Z,75.59
2024-01-20T05:31:18.071Z,75.05
2024-01-20T05:33:47.036Z,75.52
2024-01-20T05:36:15.884Z,75.83
2024-01-20T05:38:44.692Z,76.13
2024-01-20T05:41:14.211Z,75.89
2024-01-20T05:43:45.706Z,75.88
2024-01-20T05:46:14.509Z,76.23
2024-01-20T05:48:43.358Z,76.34
2024-01-20T05:51:12.282Z,76.74
2024-01-20T05:53:42.155Z,76.56
2024-01-20T05:56:11.000Z,76.87
2024-01-20T05:58:40.075Z,77.38
2024-01-20T06:01:11.991Z,77.19
2024-01-20T06:03:40.731Z,77.17
2024-01-20T06:06:10.927Z,76.93
2024-01-20T06:08:41.382Z,77.35
2024-01-20T06:11:11.726Z,77.18
2024-01-20T06:13:40.278Z,77.09
2024-01-20T06:16:09.327Z,77.54
2024-01-20T06:18:38.125Z,78.12
2024-01-20T06:21:07.237Z,77.52
2024-01-20T06:23:36.582Z,77.38
2024-01-20T06:26:06.001Z,77.94
2024-01-20T06:28:34.637Z,77.99
2024-01-20T06:31:03.894Z,77.44
2024-01-20T06:33:32.775Z,77.56
2024-01-20T06:36:01.865Z,77.15
2024-01-20T06:38:30.581Z,77.31
2024-01-20T06:41:00.275Z,77.34
2024-01-20T06:43:29.233Z,77.05
2024-01-20T06:45:58.294Z,77.02
2024-01-20T06:48:28.620Z,77.11
2024-01-20T06:51:00.909Z,77.29
2024-01-20T06:53:29.652Z,76.98
2024-01-20T06:55:58.755Z,76.90
2024-01-20T06:58:27.594Z,77.04
2024-01-20T07:00:56.541Z,76.59
2024-01-20T07:03:25.973Z,76.74
2024-01-20T07:05:54.879Z,76.82
2024-01-20T07:08:23.731Z,76.97
2024-01-20T07:10:52.216Z,76.87
2024-01-20T07:13:21.054Z,76.98
2024-01-20T07:15:49.743Z,77.05
2024-01-20T07:18:18.933Z,77.27
2024-01-20T07:20:50.935Z,76.94
2024-01-20T07:23:19.876Z,77.02
2024-01-20T07:25:48.872Z,76.99
2024-01-20T07:28:17.833Z,76.87
2024-01-20T07:30:47.137Z,77.32
2024-01-20T07:33:15.800Z,77.14
2024-01-20T07:35:44.695Z,76.74
2024-01-20T07:38:13.886Z,76.90
2024-01-20T07:40:43.337Z,77.00
2024-01-20T07:43:12.294Z,77.04
2024-01-20T07:45:42.856Z,76.83
2024-01-20T07:48:11.962Z,76.60
2024-01-20T07:50:41.107Z,76.88
2024-01-20T07:53:09.984Z,76.51
2024-01-20T07:55:38.946Z,76.24
2024-01-20T07:58:07.956Z,76.85
2024-01-20T08:00:36.923Z,76.74
2024-01-20T08:03:06.436Z,76.20
2024-01-20T08:05:35.910Z,77.00
2024-01-20T08:08:05.346Z,76.10
2024-01-20T08:10:34.377Z,76.78
2024-01-20T08:13:03.001Z,76.74
2024-01-20T08:15:32.112Z,77.12
2024-01-20T08:18:02.190Z,76.19
2024-01-20T08:20:31.237Z,76.82
2024-01-20T08:23:00.197Z,76.56
2024-01-20T08:25:28.894Z,76.58
2024-01-20T08:27:57.753Z,76.81
2024-01-20T08:30:27.460Z,77.35
2024-01-20T08:33:00.434Z,77.20
2024-01-20T08:35:31.553Z,77.20
2024-01-20T08:38:00.278Z,76.96
2024-01-20T08:40:29.329Z,76.50
2024-01-20T08:42:59.515Z,76.96
2024-01-20T08:45:28.729Z,76.32
2024-01-20T08:48:02.134Z,76.96
2024-01-20T08:50:31.112Z,76.97
2024-01-20T08:53:00.362Z,77.10
2024-01-20T08:55:29.308Z,76.79
2024-01-20T08:57:59.113Z,76.67
2024-01-20T09:00:27.808Z,77.24
2024-01-20T09:02:56.647Z,76.83
2024-01-20T09:05:26.076Z,76.80
2024-01-20T09:08:07.161Z,77.18
2024-01-20T09:10:37.338Z,76.73
2024-01-20T09:13:06.912Z,76.98
2024-01-20T09:15:36.171Z,76.89
2024-01-20T09:18:05.886Z,77.12
2024-01-20T09:20:34.852Z,76.94
2024-01-20T09:23:03.917Z,77.28
2024-01-20T09:25:32.810Z,76.95
2024-01-20T09:28:02.399Z,77.24
2024-01-20T09:30:31.126Z,77.48
2024-01-20T09:33:00.206Z,76.74
2024-01-20T09:35:29.453Z,77.21
2024-01-20T09:37:58.412Z,77.02
2024-01-20T09:40:28.292Z,77.55
2024-01-20T09:42:57.222Z,76.94
2024-01-20T09:45:26.940Z,77.20
2024-01-20T09:47:57.403Z,77.56
2024-01-20T09:50:26.330Z,77.27
2024-01-20T09:53:10.246Z,77.82
2024-01-20T09:55:39.066Z,77.46
2024-01-20T09:58:10.666Z,77.35
2024-01-20T10:00:41.323Z,77.23
2024-01-20T10:03:11.543Z,76.81
2024-01-20T10:05:40.665Z,77.16
2024-01-20T10:08:09.504Z,77.19
2024-01-20T10:10:38.919Z,77.45
2024-01-20T10:13:07.778Z,77.16
2024-01-20T10:15:38.279Z,77.42
2024-01-20T10:18:13.030Z,77.38
2024-01-20T10:20:43.070Z,76.95
2024-01-20T10:23:12.815Z,77.22
2024-01-20T10:25:41.774Z,77.31
2024-01-20T10:28:10.761Z,77.20
2024-01-20T10:30:40.679Z,77.20
2024-01-20T10:33:11.480Z,77.17
2024-01-20T10:35:40.903Z,77.50
2024-01-20T10:38:15.303Z,77.06
2024-01-20T10:40:48.470Z,77.14
2024-01-20T10:43:18.139Z,77.02
2024-01-20T10:46:00.642Z,76.84
2024-01-20T10:48:35.955Z,77.80
2024-01-20T10:51:10.871Z,78.15
2024-01-20T10:53:43.218Z,78.54
2024-01-20T10:56:13.701Z,78.55
2024-01-20T10:58:50.140Z,78.29
2024-01-20T11:01:20.323Z,78.35
2024-01-20T11:03:49.615Z,78.33
2024-01-20T11:06:22.855Z,78.16
2024-01-20T11:08:53.685Z,77.97
2024-01-20T11:11:28.984Z,77.11
2024-01-20T11:14:01.619Z,77.61
2024-01-20T11:16:39.121Z,77.22
2024-01-20T11:19:13.823Z,77.24
2024-01-20T11:21:43.072Z,77.98
2024-01-20T11:24:12.873Z,78.02
2024-01-20T11:26:43.221Z,77.78
2024-01-20T11:29:12.637Z,77.38
2024-01-20T11:31:50.864Z,77.69
2024-01-20T11:34:52.883Z,77.28
2024-01-20T11:56:14.176Z,77.11
2024-01-20T11:58:44.571Z,76.93
2024-01-20T12:01:16.006Z,76.83
2024-01-20T12:03:44.865Z,76.84
2024-01-20T12:06:17.028Z,76.83
2024-01-20T12:08:47.357Z,77.03
2024-01-20T12:11:20.869Z,77.21
2024-01-20T12:13:52.515Z,77.24
2024-01-20T12:16:21.707Z,76.98
2024-01-20T12:18:52.118Z,77.08
2024-01-20T12:21:23.584Z,77.08
2024-01-20T12:23:54.643Z,76.78
2024-01-20T12:26:24.453Z,76.98
2024-01-20T12:28:55.021Z,77.16
2024-01-20T12:31:27.969Z,77.31
2024-01-20T12:33:56.656Z,76.65
2024-01-20T12:36:26.747Z,76.93
2024-01-20T12:38:56.003Z,76.89
2024-01-20T12:41:25.001Z,76.83
2024-01-20T12:43:56.170Z,77.09
2024-01-20T12:46:25.093Z,77.23
2024-01-20T12:48:53.810Z,76.96
2024-01-20T12:51:22.817Z,76.93
2024-01-20T12:53:52.265Z,77.10
2024-01-20T12:56:21.360Z,76.63
2024-01-20T12:58:50.100Z,77.14
2024-01-20T13:01:20.382Z,77.14
2024-01-20T13:03:49.752Z,77.00
2024-01-20T13:06:19.006Z,76.91
2024-01-20T13:08:51.685Z,77.15
2024-01-20T13:11:21.078Z,76.86
2024-01-20T13:13:50.542Z,76.83
2024-01-20T13:16:19.217Z,77.00
2024-01-20T13:18:48.270Z,76.65
2024-01-20T13:21:17.041Z,77.01
2024-01-20T13:23:49.084Z,76.89
2024-01-20T13:26:20.093Z,76.77
2024-01-20T13:28:53.950Z,76.45
2024-01-20T13:31:24.906Z,76.78
2024-01-20T13:33:55.489Z,76.28
2024-01-20T13:36:24.484Z,76.44
2024-01-20T13:38:56.421Z,76.85
2024-01-20T13:41:26.256Z,76.38
2024-01-20T13:43:55.445Z,76.42
2024-01-20T13:46:24.433Z,76.91
2024-01-20T13:48:53.493Z,76.53
2024-01-20T13:51:24.238Z,76.77
2024-01-20T13:53:54.607Z,76.68
2024-01-20T13:56:26.222Z,76.52
2024-01-20T13:58:55.902Z,76.26
2024-01-20T14:01:25.969Z,76.39
2024-01-20T14:03:55.637Z,76.67
2024-01-20T14:06:26.532Z,76.44
2024-01-20T14:08:55.561Z,76.26
2024-01-20T14:11:25.623Z,76.24
2024-01-20T14:13:54.643Z,76.31
2024-01-20T14:16:23.502Z,76.71
2024-01-20T14:18:52.386Z,76.54
2024-01-20T14:21:21.405Z,76.48
2024-01-20T14:23:50.394Z,76.40
2024-01-20T14:26:19.628Z,76.48
2024-01-20T14:28:50.567Z,76.38
2024-01-20T14:31:19.450Z,76.51
2024-01-20T14:33:48.657Z,76.25
2024-01-20T14:36:17.471Z,76.17
2024-01-20T14:38:46.329Z,76.12
2024-01-20T14:41:15.089Z,76.47
2024-01-20T14:43:44.387Z,76.24
2024-01-20T14:46:12.989Z,76.50
2024-01-20T14:48:41.889Z,76.40
2024-01-20T14:51:11.093Z,76.40
2024-01-20T14:53:40.330Z,76.16
2024-01-20T14:56:09.296Z,76.30
2024-01-20T14:58:38.032Z,76.52
2024-01-20T15:01:06.938Z,76.25
2024-01-20T15:03:35.970Z,75.99
2024-01-20T15:06:07.715Z,76.02
2024-01-20T15:08:37.529Z,75.64
2024-01-20T15:11:06.474Z,75.43
2024-01-20T15:13:35.110Z,75.92
2024-01-20T15:16:05.371Z,75.44
2024-01-20T15:18:34.149Z,75.99
2024-01-20T15:21:03.205Z,75.36
2024-01-20T15:23:32.159Z,75.74
2024-01-20T15:26:01.552Z,75.73
2024-01-20T15:28:30.599Z,75.30
2024-01-20T15:30:59.464Z,75.10
2024-01-20T15:33:28.680Z,75.34
2024-01-20T15:35:57.509Z,75.38
2024-01-20T15:38:26.449Z,75.40
2024-01-20T15:40:57.590Z,75.27
2024-01-20T15:43:26.532Z,74.70
2024-01-20T15:45:55.382Z,74.77
2024-01-20T15:48:24.385Z,75.10
2024-01-20T15:50:53.269Z,75.20
2024-01-20T15:53:22.188Z,74.66
2024-01-20T15:55:51.339Z,74.52
2024-01-20T15:58:20.349Z,74.92
2024-01-20T16:00:49.340Z,74.69
2024-01-20T16:03:18.482Z,74.57
2024-01-20T16:05:50.086Z,74.85
2024-01-20T16:08:19.106Z,75.14
2024-01-20T16:10:47.681Z,74.58
2024-01-20T16:13:17.084Z,74.96
2024-01-20T16:15:46.343Z,74.85
2024-01-20T16:18:17.044Z,74.84
2024-01-20T16:20:46.198Z,74.94
2024-01-20T16:23:18.583Z,75.24
2024-01-20T16:25:51.204Z,75.38
2024-01-20T16:28:19.914Z,75.44
2024-01-20T16:30:48.777Z,74.94
2024-01-20T16:33:17.828Z,75.31
2024-01-20T16:35:46.963Z,75.61
2024-01-20T16:38:17.130Z,75.66
2024-01-20T16:40:47.483Z,75.10
2024-01-20T16:43:16.202Z,75.55
2024-01-20T16:45:45.228Z,75.23
2024-01-20T16:48:14.910Z,75.59
2024-01-20T16:50:43.942Z,75.54
2024-01-20T16:53:13.795Z,75.77
2024-01-20T16:55:42.667Z,75.46
2024-01-20T16:58:16.771Z,75.90
2024-01-20T17:00:45.778Z,75.55
2024-01-20T17:03:19.668Z,75.40
2024-01-20T17:05:51.190Z,75.63
2024-01-20T17:08:20.490Z,75.23
2024-01-20T17:10:50.855Z,75.71
2024-01-20T17:13:19.636Z,76.02
2024-01-20T17:15:49.749Z,75.49
2024-01-20T17:18:18.747Z,75.60
2024-01-20T17:20:47.736Z,75.70
2024-01-20T17:23:16.889Z,75.55
2024-01-20T17:25:48.602Z,75.60
2024-01-20T17:28:19.213Z,75.73
2024-01-20T17:30:53.824Z,75.47
2024-01-20T17:33:23.064Z,75.43
2024-01-20T17:35:54.830Z,75.04
2024-01-20T17:38:23.749Z,74.98
2024-01-20T17:40:52.397Z,75.31
2024-01-20T17:43:21.686Z,75.36
2024-01-20T17:45:52.022Z,75.42
2024-01-20T17:48:23.799Z,75.43
2024-01-20T17:50:53.950Z,75.13
2024-01-20T17:53:27.040Z,75.27
2024-01-20T17:55:55.687Z,75.26
2024-01-20T17:58:24.467Z,75.18
2024-01-20T18:00:57.133Z,75.27
2024-01-20T18:03:27.247Z,75.00
2024-01-20T18:05:56.173Z,75.08
2024-01-20T18:08:26.074Z,75.17
2024-01-20T18:10:57.108Z,75.24
2024-01-20T18:13:26.156Z,75.35
2024-01-20T18:15:54.947Z,74.95
2024-01-20T18:18:23.848Z,75.08
2024-01-20T18:20:53.127Z,75.22
2024-01-20T18:23:23.449Z,75.09
2024-01-20T18:25:52.686Z,74.69
2024-01-20T18:28:21.180Z,74.93
2024-01-20T18:30:50.103Z,75.32
2024-01-20T18:33:19.791Z,74.95
2024-01-20T18:35:48.802Z,75.03
2024-01-20T18:38:18.911Z,74.71
2024-01-20T18:40:47.743Z,74.99
2024-01-20T18:43:16.876Z,75.26
2024-01-20T18:45:45.825Z,74.81
2024-01-20T18:48:14.796Z,75.04
2024-01-20T18:50:44.165Z,75.25
2024-01-20T18:53:14.812Z,74.92
2024-01-20T18:55:43.825Z,75.09
2024-01-20T18:58:13.876Z,75.10
2024-01-20T19:00:42.674Z,75.39
2024-01-20T19:03:12.099Z,74.95
2024-01-20T19:05:41.496Z,74.73
2024-01-20T19:08:10.476Z,74.93
2024-01-20T19:10:41.435Z,74.44
2024-01-20T19:13:13.055Z,74.88
2024-01-20T19:15:42.397Z,74.10
2024-01-20T19:18:11.694Z,74.53
2024-01-20T19:20:42.210Z,75.07
2024-01-20T19:23:14.658Z,74.47
2024-01-20T19:25:43.646Z,74.39
2024-01-20T19:28:12.460Z,74.38
2024-01-20T19:30:41.230Z,74.63
2024-01-20T19:33:10.480Z,74.29
2024-01-20T19:35:39.315Z,74.64
2024-01-20T19:38:08.246Z,74.50
2024-01-20T19:40:37.600Z,74.31
2024-01-20T19:43:06.537Z,74.70
2024-01-20T19:45:35.718Z,74.36
2024-01-20T19:48:05.154Z,74.44
2024-01-20T19:50:33.887Z,74.21
2024-01-20T19:53:02.817Z,74.08
2024-01-20T19:55:31.178Z,74.72
2024-01-20T19:57:59.698Z,73.87
2024-01-20T20:00:28.928Z,74.42
2024-01-20T20:03:00.849Z,74.24
2024-01-20T20:05:30.060Z,73.94
2024-01-20T20:08:00.379Z,73.73
2024-01-20T20:10:31.123Z,74.04
2024-01-20T20:12:59.977Z,74.53
2024-01-20T20:15:30.002Z,74.27
2024-01-20T20:17:59.081Z,74.26
2024-01-20T20:20:27.826Z,73.85
2024-01-20T20:22:57.082Z,74.53
2024-01-20T20:25:27.565Z,74.32
2024-01-20T20:27:56.086Z,73.89
2024-01-20T20:30:28.731Z,74.08
2024-01-20T20:32:57.946Z,74.04
2024-01-20T20:35:26.783Z,74.09
2024-01-20T20:37:56.944Z,74.01
2024-01-20T20:40:26.040Z,74.69
2024-01-20T20:42:56.152Z,74.33
2024-01-20T20:45:25.475Z,74.14
2024-01-20T20:47:54.350Z,74.44
2024-01-20T20:50:23.114Z,74.23
2024-01-20T20:52:52.060Z,75.02
2024-01-20T20:55:21.200Z,74.29
2024-01-20T20:57:49.908Z,74.88
2024-01-20T21:00:21.015Z,74.51
2024-01-20T21:02:49.510Z,74.97
2024-01-20T21:05:18.808Z,74.56
2024-01-20T21:07:48.144Z,74.76
2024-01-20T21:10:18.381Z,74.71
2024-01-20T21:12:47.879Z,74.99
2024-01-20T21:15:17.500Z,74.62
2024-01-20T21:17:46.272Z,74.32
2024-01-20T21:20:15.293Z,74.91
2024-01-20T21:22:44.005Z,74.41
2024-01-20T21:25:12.967Z,74.99
2024-01-20T21:27:41.860Z,74.80
2024-01-20T21:30:11.239Z,74.62
2024-01-20T21:32:40.294Z,74.53
2024-01-20T21:35:09.750Z,74.92
2024-01-20T21:37:38.899Z,74.60
2024-01-20T21:40:09.232Z,74.83
2024-01-20T21:42:40.580Z,74.99
2024-01-20T21:45:11.042Z,74.45
2024-01-20T21:47:39.908Z,74.51
2024-01-20T21:50:09.771Z,74.64
2024-01-20T21:52:38.563Z,74.97
2024-01-20T21:55:10.260Z,74.69
2024-01-20T21:57:39.180Z,74.59
2024-01-20T22:00:09.033Z,74.90
2024-01-20T22:02:44.752Z,74.31
2024-01-20T22:05:14.613Z,74.51
2024-01-20T22:07:44.520Z,75.26
2024-01-20T22:10:13.300Z,74.31
2024-01-20T22:12:42.189Z,75.22
2024-01-20T22:15:11.434Z,74.45
2024-01-20T22:17:40.396Z,74.79
2024-01-20T22:20:10.338Z,75.24
2024-01-20T22:22:39.279Z,74.81
2024-01-20T22:25:08.500Z,74.93
2024-01-20T22:27:41.116Z,74.81
2024-01-20T22:30:10.787Z,74.60
2024-01-20T22:32:40.953Z,74.99
2024-01-20T22:35:10.095Z,75.13
2024-01-20T22:37:38.954Z,75.24
2024-01-20T22:40:10.757Z,74.93
2024-01-20T22:42:42.123Z,75.25
2024-01-20T22:45:12.996Z,75.01
2024-01-20T22:47:45.775Z,75.28
2024-01-20T22:50:15.310Z,75.84
2024-01-20T22:52:44.325Z,75.12
2024-01-20T22:55:13.510Z,75.17
2024-01-20T22:57:43.283Z,75.34
2024-01-20T23:00:14.534Z,75.35
2024-01-20T23:02:44.373Z,75.49
2024-01-20T23:05:13.076Z,75.85
2024-01-20T23:07:41.945Z,75.35
2024-01-20T23:10:12.354Z,75.46
2024-01-20T23:12:41.848Z,75.56
2024-01-20T23:15:11.043Z,75.75
2024-01-20T23:17:39.768Z,75.14
2024-01-20T23:20:11.756Z,75.63
2024-01-20T23:22:40.499Z,75.60
2024-01-20T23:25:10.946Z,75.48
2024-01-20T23:27:39.948Z,75.77
2024-01-20T23:30:09.071Z,75.20
2024-01-20T23:32:37.928Z,75.37
2024-01-20T23:35:07.858Z,75.42
2024-01-20T23:37:36.665Z,75.37
2024-01-20T23:40:06.531Z,75.96
2024-01-20T23:42:35.181Z,76.05
2024-01-20T23:45:04.099Z,75.97
2024-01-20T23:47:32.894Z,75.27
2024-01-20T23:50:02.359Z,75.22
2024-01-20T23:52:31.654Z,75.28
2024-01-20T23:55:00.397Z,75.65
2024-01-20T23:57:28.939Z,75.22
2024-01-20T23:59:57.416Z,75.88
